Weather History for Alma, MI

Change the Weather History Date:

Wednesday, October 31, 2012

  Actual Average Record
Temperature  
Mean Temperature 38 °F -  
Max Temperature 42 °F 56 °F 74 °F (1989)
Min Temperature 34 °F 35 °F 21 °F (1988)
Degree Days  
Heating Degree Days 27    
Moisture  
Dew Point 35 °F    
Average Humidity 88    
Maximum Humidity 98    
Minimum Humidity 76    
Precipitation  
Precipitation 0.00 in - - ()
Sea Level Pressure  
Sea Level Pressure 29.62 in    
Wind  
Wind Speed 12 mph (NW)    
Max Wind Speed 17 mph    
Max Gust Speed 26 mph    
Visibility 8 miles    
Events Rain    
Averages and records for this station are not official NWS values.
T = Trace of Precipitation, MM = Missing Value Source: NWS Daily Summary

Daily Weather History Graph

Daily Weather History Graph

Search for Another Location

Airport:

Trip Planner

Search our weather history database for the weather conditions in past years. The results will help you decide how hot, cold, wet, or windy it might be!

Date:

Astronomy

Oct. 31, 2012 Rise Set
Actual Time 8:13 AM EDT 6:30 PM EDT
Civil Twilight 7:43 AM EDT 7:00 PM EDT
Nautical Twilight 7:09 AM EDT 7:34 PM EDT
Astronomical Twilight 6:36 AM EDT 8:07 PM EDT
Moon 7:38 PM EDT (10/31) 9:56 AM EDT (10/31)
Length of Visible Light 11h 16m
Length of Day
10h 17m
Full, 97% of the Moon is Illuminated
Oct 31
Full
Nov 6
Last Quarter
Nov 13
New
Nov 20
First Quarter
Nov 28
Full

Hourly Weather History & Observations

Time (EDT) Temp. Windchill Dew Point Humidity Pressure Visibility Wind Dir Wind Speed Gust Speed Precip Events Conditions
12:10 AM 35.2 °F 25.0 °F 33.1 °F 92% 29.60 in 10.0 mi NNW 17.3 mph 23.0 mph N/A   Overcast
12:30 AM 35.1 °F 26.9 °F 33.1 °F 92% 29.60 in 10.0 mi NW 11.5 mph 18.4 mph N/A   Overcast
12:49 AM 34.7 °F 25.9 °F 33.1 °F 94% 29.60 in 4.0 mi NNW 12.7 mph 20.7 mph N/A   Overcast
1:10 AM 34.7 °F 25.9 °F 33.3 °F 94% 29.60 in 4.0 mi NW 12.7 mph 20.7 mph N/A   Overcast
1:30 AM 34.7 °F 26.4 °F 33.6 °F 96% 29.60 in 4.0 mi NW 11.5 mph 16.1 mph N/A   Overcast
1:50 AM 34.7 °F 26.4 °F 33.4 °F 95% 29.59 in 2.5 mi NW 11.5 mph 18.4 mph N/A Rain Light Rain
2:10 AM 34.7 °F 25.9 °F 33.8 °F 97% 29.59 in 4.0 mi NW 12.7 mph 19.6 mph N/A   Overcast
2:30 AM 34.7 °F 27.5 °F 33.8 °F 97% 29.59 in 7.0 mi NW 9.2 mph 17.3 mph N/A   Drizzle
2:50 AM 34.7 °F 26.9 °F 33.8 °F 97% 29.59 in 7.0 mi NW 10.4 mph 16.1 mph N/A Rain Light Rain
3:10 AM 34.7 °F 26.4 °F 33.4 °F 95% 29.59 in 10.0 mi NW 11.5 mph - N/A   Overcast
3:51 AM 35.2 °F 27.6 °F 33.1 °F 92% 29.59 in 10.0 mi NW 10.4 mph - N/A   Overcast
4:11 AM 35.6 °F 27.1 °F 33.1 °F 91% 29.59 in 10.0 mi NNW 12.7 mph 18.4 mph N/A   Overcast
4:31 AM 35.6 °F 27.5 °F 33.1 °F 91% 29.59 in 7.0 mi NW 11.5 mph 17.3 mph N/A Rain Light Rain
4:51 AM 35.1 °F 27.9 °F 33.4 °F 94% 29.59 in 5.0 mi NW 9.2 mph - N/A Rain Light Rain
5:11 AM 35.1 °F 27.4 °F 33.8 °F 95% 29.59 in 4.0 mi NNW 10.4 mph - N/A Rain Light Rain
5:31 AM 34.9 °F 27.1 °F 33.8 °F 96% 29.60 in 2.5 mi NW 10.4 mph 17.3 mph N/A Rain Light Rain
5:51 AM 34.9 °F 27.1 °F 34.0 °F 97% 29.60 in 3.0 mi NW 10.4 mph - N/A Rain Light Rain
6:11 AM 34.9 °F 29.0 °F 34.2 °F 97% 29.60 in 4.0 mi NW 6.9 mph - N/A Rain Light Rain
6:31 AM 35.1 °F 29.3 °F 34.3 °F 97% 29.60 in 4.0 mi NW 6.9 mph - N/A Rain Light Rain
6:52 AM 35.2 °F 28.8 °F 34.7 °F 98% 29.61 in 5.0 mi NW 8.1 mph - N/A   Overcast
7:12 AM 35.4 °F 29.7 °F 34.7 °F 97% 29.61 in 7.0 mi NW 6.9 mph - N/A   Overcast
7:32 AM 35.6 °F 28.6 °F 34.7 °F 97% 29.61 in 4.0 mi NW 9.2 mph - N/A   Overcast
7:52 AM 35.6 °F 28.6 °F 34.7 °F 97% 29.61 in 4.0 mi NW 9.2 mph - N/A   Overcast
8:12 AM 35.6 °F 28.6 °F 34.7 °F 97% 29.61 in 4.0 mi NW 9.2 mph - N/A   Overcast
8:32 AM 35.6 °F 29.9 °F 34.7 °F 97% 29.61 in 5.0 mi NW 6.9 mph - N/A   Overcast
9:12 AM 36.5 °F 29.7 °F 35.4 °F 96% 29.61 in 10.0 mi NW 9.2 mph - N/A   Overcast
9:32 AM 36.9 °F 29.6 °F 35.2 °F 94% 29.61 in 10.0 mi NW 10.4 mph - N/A   Overcast
9:53 AM 37.6 °F 32.3 °F 35.6 °F 93% 29.62 in 10.0 mi NW 6.9 mph - N/A   Overcast
10:13 AM 37.9 °F 30.9 °F 35.6 °F 91% 29.62 in 10.0 mi NW 10.4 mph - N/A   Overcast
10:33 AM 39.2 °F 33.0 °F 36.0 °F 88% 29.61 in 10.0 mi NW 9.2 mph - N/A   Overcast
10:53 AM 39.9 °F 33.4 °F 35.8 °F 85% 29.61 in 10.0 mi NNW 10.4 mph - N/A   Overcast
11:13 AM 40.3 °F 34.4 °F 36.3 °F 86% 29.61 in 10.0 mi WNW 9.2 mph 17.3 mph N/A   Overcast
11:33 AM 40.3 °F 34.4 °F 36.5 °F 86% 29.61 in 10.0 mi NW 9.2 mph - N/A   Overcast
11:53 AM 40.8 °F 34.5 °F 37.0 °F 86% 29.61 in 10.0 mi WNW 10.4 mph - N/A   Overcast
12:18 PM 40.6 °F 33.4 °F 36.5 °F 85% 29.61 in 10.0 mi NW 12.7 mph 17.3 mph N/A   Overcast
12:34 PM 41.4 °F 35.2 °F 36.7 °F 83% 29.61 in 10.0 mi WNW 10.4 mph 16.1 mph N/A   Overcast
12:54 PM 41.5 °F 35.9 °F 36.7 °F 83% 29.61 in 10.0 mi NW 9.2 mph 17.3 mph N/A   Overcast
1:14 PM 41.9 °F 35.9 °F 36.1 °F 80% 29.61 in 10.0 mi NW 10.4 mph 18.4 mph N/A   Overcast
1:34 PM 41.9 °F 34.0 °F 35.8 °F 79% 29.61 in 10.0 mi NW 16.1 mph 19.6 mph N/A   Overcast
1:54 PM 41.9 °F 34.3 °F 35.6 °F 78% 29.61 in 10.0 mi NW 15.0 mph 19.6 mph N/A   Overcast
2:19 PM 42.3 °F 35.1 °F 35.8 °F 78% 29.61 in 10.0 mi NW 13.8 mph 18.4 mph N/A   Overcast
2:34 PM 42.1 °F 34.9 °F 35.6 °F 78% 29.61 in 10.0 mi NNW 13.8 mph 21.9 mph N/A   Overcast
3:10 PM 42.3 °F 36.3 °F 35.6 °F 77% 29.61 in 10.0 mi NW 10.4 mph 17.3 mph N/A   Overcast
3:30 PM 42.8 °F 36.2 °F 35.6 °F 76% 29.61 in 10.0 mi NW 12.7 mph 18.4 mph N/A   Overcast
3:50 PM 42.4 °F 35.3 °F 35.4 °F 76% 29.61 in 10.0 mi WNW 13.8 mph 18.4 mph N/A   Overcast
4:10 PM 41.4 °F 34.0 °F 36.0 °F 81% 29.62 in 7.0 mi NW 13.8 mph 20.7 mph N/A   Overcast
4:30 PM 40.8 °F 34.1 °F 36.5 °F 85% 29.62 in 7.0 mi NW 11.5 mph 19.6 mph N/A   Light Drizzle
4:50 PM 41.4 °F 35.2 °F 35.6 °F 80% 29.62 in 10.0 mi WNW 10.4 mph 18.4 mph N/A   Overcast
5:10 PM 41.2 °F 32.7 °F 35.6 °F 81% 29.63 in 10.0 mi WNW 17.3 mph 24.2 mph N/A   Overcast
5:30 PM 41.2 °F 33.7 °F 34.9 °F 78% 29.63 in 10.0 mi NW 13.8 mph 26.5 mph N/A   Overcast
5:51 PM 41.0 °F 33.9 °F 34.9 °F 79% 29.64 in 10.0 mi WNW 12.7 mph 23.0 mph N/A   Overcast
6:11 PM 40.6 °F 34.3 °F 35.2 °F 81% 29.64 in 10.0 mi WNW 10.4 mph 21.9 mph N/A   Overcast
6:31 PM 40.5 °F 32.8 °F 35.1 °F 81% 29.64 in 10.0 mi WNW 13.8 mph 24.2 mph N/A   Overcast
6:51 PM 40.3 °F 33.9 °F 35.6 °F 83% 29.65 in 10.0 mi WNW 10.4 mph 18.4 mph N/A   Overcast
7:11 PM 40.3 °F 33.4 °F 35.1 °F 82% 29.66 in 10.0 mi NW 11.5 mph - N/A   Overcast
7:31 PM 40.5 °F 34.1 °F 35.1 °F 81% 29.66 in 10.0 mi WNW 10.4 mph - N/A   Overcast
7:51 PM 40.3 °F 33.4 °F 35.2 °F 82% 29.66 in 10.0 mi WNW 11.5 mph 17.3 mph N/A   Overcast
8:11 PM 40.1 °F 34.1 °F 35.6 °F 84% 29.67 in 10.0 mi WNW 9.2 mph - N/A   Overcast
8:32 PM 39.9 °F 33.4 °F 35.6 °F 85% 29.67 in 10.0 mi WNW 10.4 mph - N/A   Overcast
8:52 PM 40.1 °F 32.7 °F 35.6 °F 84% 29.67 in 10.0 mi NW 12.7 mph - N/A   Overcast
9:12 PM 40.1 °F 32.4 °F 35.6 °F 84% 29.67 in 10.0 mi WNW 13.8 mph - N/A   Light Drizzle
9:32 PM 39.7 °F 33.2 °F 36.0 °F 86% 29.68 in 10.0 mi NW 10.4 mph - N/A Rain Light Rain
9:52 PM 39.4 °F 32.7 °F 36.5 °F 89% 29.68 in 10.0 mi WNW 10.4 mph - N/A   Overcast
10:12 PM 39.4 °F 33.2 °F 36.5 °F 89% 29.68 in 10.0 mi WNW 9.2 mph - N/A   Overcast
10:32 PM 39.6 °F 32.5 °F 36.5 °F 89% 29.68 in 10.0 mi WNW 11.5 mph 16.1 mph N/A   Overcast
11:13 PM 40.1 °F 33.6 °F 35.6 °F 84% 29.69 in 10.0 mi WNW 10.4 mph - N/A   Overcast
11:33 PM 40.1 °F 33.6 °F 35.8 °F 85% 29.68 in 10.0 mi WNW 10.4 mph 18.4 mph N/A   Overcast
11:53 PM 39.7 °F 33.2 °F 36.1 °F 87% 29.68 in 10.0 mi WNW 10.4 mph 16.1 mph N/A   Overcast